createdAt,value
2023-03-27T00:01:37.291Z,6.31
2023-03-27T00:04:05.823Z,6.25
2023-03-27T00:06:34.772Z,6.19
2023-03-27T00:09:04.691Z,6.14
2023-03-27T00:11:33.368Z,6.10
2023-03-27T00:14:01.648Z,6.07
2023-03-27T00:16:30.676Z,6.06
2023-03-27T00:18:58.905Z,6.04
2023-03-27T00:21:27.296Z,6.03
2023-03-27T00:23:56.880Z,6.03
2023-03-27T00:26:25.185Z,6.01
2023-03-27T00:28:55.091Z,6.01
2023-03-27T00:31:23.596Z,6.01
2023-03-27T00:33:52.159Z,6.00
2023-03-27T00:36:21.562Z,5.99
2023-03-27T00:38:53.232Z,5.96
2023-03-27T00:41:23.549Z,5.92
2023-03-27T00:43:54.539Z,5.89
2023-03-27T00:46:34.824Z,5.85
2023-03-27T00:49:06.985Z,5.80
2023-03-27T00:51:37.333Z,5.74
2023-03-27T00:54:06.532Z,5.68
2023-03-27T00:56:37.908Z,5.65
2023-03-27T00:59:12.729Z,5.59
2023-03-27T01:01:42.836Z,5.53
2023-03-27T01:04:11.112Z,5.51
2023-03-27T01:06:42.444Z,5.47
2023-03-27T01:09:11.253Z,5.45
2023-03-27T01:12:07.066Z,5.44
2023-03-27T01:14:42.108Z,5.43
2023-03-27T01:17:28.211Z,5.43
2023-03-27T01:20:04.351Z,5.43
2023-03-27T01:22:32.733Z,5.41
2023-03-27T01:25:10.744Z,5.40
2023-03-27T01:28:13.286Z,5.37
2023-03-27T01:30:53.195Z,5.33
2023-03-27T01:34:03.996Z,5.31
2023-03-27T01:37:09.955Z,5.29
2023-03-27T01:39:44.873Z,5.25
2023-03-27T01:42:23.560Z,5.20
2023-03-27T01:45:01.934Z,5.15
2023-03-27T01:48:04.929Z,5.10
2023-03-27T01:50:46.325Z,5.03
2023-03-27T01:53:43.090Z,4.97
2023-03-27T01:56:26.441Z,4.91
2023-03-27T01:59:09.544Z,4.85
2023-03-27T02:01:43.508Z,4.81
2023-03-27T02:04:17.330Z,4.78
2023-03-27T02:06:52.150Z,4.76
2023-03-27T02:09:23.555Z,4.76
2023-03-27T02:11:58.582Z,4.76
2023-03-27T02:14:36.685Z,4.78
2023-03-27T02:17:13.109Z,4.81
2023-03-27T02:19:49.833Z,4.84
2023-03-27T02:22:18.721Z,4.87
2023-03-27T02:24:54.286Z,4.90
2023-03-27T02:27:35.649Z,4.92
2023-03-27T02:30:31.448Z,4.93
2023-03-27T02:33:02.778Z,4.92
2023-03-27T02:35:43.266Z,4.88
2023-03-27T02:38:38.018Z,4.84
2023-03-27T02:41:34.868Z,4.78
2023-03-27T02:44:14.579Z,4.72
2023-03-27T02:47:07.227Z,4.64
2023-03-27T02:49:45.227Z,4.57
2023-03-27T02:52:21.073Z,4.50
2023-03-27T02:54:56.161Z,4.44
2023-03-27T02:57:28.166Z,4.38
2023-03-27T03:00:20.741Z,4.33
2023-03-27T03:03:05.813Z,4.30
2023-03-27T03:05:37.251Z,4.27
2023-03-27T03:08:10.392Z,4.25
2023-03-27T03:10:46.220Z,4.24
2023-03-27T03:13:16.419Z,4.22
2023-03-27T03:15:46.350Z,4.21
2023-03-27T03:18:15.074Z,4.20
2023-03-27T03:20:44.627Z,4.22
2023-03-27T03:23:12.706Z,4.26
2023-03-27T03:25:41.797Z,4.29
2023-03-27T03:28:10.787Z,4.30
2023-03-27T03:30:43.230Z,4.31
2023-03-27T03:33:14.415Z,4.31
2023-03-27T03:35:43.406Z,4.28
2023-03-27T03:38:28.264Z,4.27
2023-03-27T03:40:59.684Z,4.25
2023-03-27T03:43:31.276Z,4.23
2023-03-27T03:46:00.518Z,4.20
2023-03-27T03:48:28.850Z,4.16
2023-03-27T03:50:57.371Z,4.12
2023-03-27T03:53:26.834Z,4.07
2023-03-27T03:55:56.113Z,4.03
2023-03-27T03:58:34.513Z,3.98
2023-03-27T04:01:05.996Z,3.94
2023-03-27T04:03:45.739Z,3.91
2023-03-27T04:06:14.329Z,3.88
2023-03-27T04:08:43.628Z,3.86
2023-03-27T04:11:31.976Z,3.88
2023-03-27T04:14:21.140Z,3.92
2023-03-27T04:16:51.165Z,3.97
2023-03-27T04:19:22.528Z,4.04
2023-03-27T04:22:04.612Z,4.12
2023-03-27T04:24:35.683Z,4.19
2023-03-27T04:27:04.576Z,4.27
2023-03-27T04:30:08.815Z,4.37
2023-03-27T04:33:00.204Z,4.46
2023-03-27T04:35:43.497Z,4.57
2023-03-27T04:38:20.154Z,4.68
2023-03-27T04:40:54.381Z,4.83
2023-03-27T04:43:27.600Z,4.97
2023-03-27T04:45:58.907Z,5.13
2023-03-27T04:48:27.226Z,5.31
2023-03-27T04:50:56.833Z,5.47
2023-03-27T04:53:36.790Z,5.67
2023-03-27T04:56:07.562Z,5.87
2023-03-27T04:58:37.978Z,6.11
2023-03-27T05:01:11.064Z,6.48
2023-03-27T05:04:18.039Z,6.98
2023-03-27T05:07:06.070Z,7.27
2023-03-27T05:09:34.328Z,7.32
2023-03-27T05:12:02.708Z,7.35
2023-03-27T05:14:42.410Z,7.39
2023-03-27T05:17:25.973Z,7.50
2023-03-27T05:19:55.270Z,7.68
2023-03-27T05:22:23.978Z,7.87
2023-03-27T05:24:59.201Z,8.03
2023-03-27T05:27:28.518Z,8.14
2023-03-27T05:29:58.433Z,8.22
2023-03-27T05:32:27.382Z,8.23
2023-03-27T05:35:18.652Z,8.37
2023-03-27T05:37:49.270Z,8.58
2023-03-27T05:40:39.544Z,8.74
2023-03-27T05:43:10.324Z,8.86
2023-03-27T05:45:39.290Z,8.90
2023-03-27T05:48:09.229Z,8.98
2023-03-27T05:50:42.426Z,9.16
2023-03-27T05:53:28.638Z,9.30
2023-03-27T05:56:27.514Z,9.26
2023-03-27T05:58:59.455Z,9.25
2023-03-27T06:01:28.248Z,9.19
2023-03-27T06:03:58.982Z,9.17
2023-03-27T06:06:36.885Z,9.19
2023-03-27T06:09:06.022Z,9.14
2023-03-27T06:11:35.486Z,9.09
2023-03-27T06:14:04.369Z,9.13
2023-03-27T06:16:52.964Z,9.26
2023-03-27T06:19:39.323Z,9.44
2023-03-27T06:22:07.806Z,9.59
2023-03-27T06:24:36.813Z,9.70
2023-03-27T06:27:05.489Z,9.82
2023-03-27T06:29:37.461Z,9.90
2023-03-27T06:32:06.753Z,9.94
2023-03-27T06:34:41.174Z,9.98
2023-03-27T06:37:37.118Z,10.02
2023-03-27T06:40:10.244Z,10.05
2023-03-27T06:42:40.012Z,10.11
2023-03-27T06:45:27.634Z,10.16
2023-03-27T06:48:25.450Z,10.26
2023-03-27T06:50:58.126Z,10.43
2023-03-27T06:53:28.597Z,10.62
2023-03-27T06:55:58.359Z,10.84
2023-03-27T06:58:28.258Z,11.03
2023-03-27T07:00:57.144Z,11.14
2023-03-27T07:03:44.554Z,11.21
2023-03-27T07:06:31.799Z,11.40
2023-03-27T07:09:05.781Z,11.99
2023-03-27T07:11:34.260Z,12.82
2023-03-27T07:14:08.885Z,13.55
2023-03-27T07:16:37.739Z,14.04
2023-03-27T07:19:06.572Z,14.23
2023-03-27T07:21:35.456Z,14.22
2023-03-27T07:24:03.833Z,14.19
2023-03-27T07:26:34.670Z,14.16
2023-03-27T07:29:22.447Z,14.09
2023-03-27T07:31:56.888Z,14.06
2023-03-27T07:34:34.213Z,13.98
2023-03-27T07:37:31.900Z,13.95
2023-03-27T07:40:29.347Z,13.98
2023-03-27T07:43:24.761Z,13.96
2023-03-27T07:45:53.891Z,13.82
2023-03-27T07:48:22.336Z,13.86
2023-03-27T07:50:51.875Z,14.08
2023-03-27T07:53:33.999Z,14.52
2023-03-27T07:56:11.309Z,14.79
2023-03-27T07:58:41.035Z,14.84
2023-03-27T08:01:09.525Z,14.76
2023-03-27T08:03:39.553Z,14.57
2023-03-27T08:06:08.846Z,14.41
2023-03-27T08:08:37.636Z,14.26
2023-03-27T08:11:13.477Z,14.09
2023-03-27T08:13:48.622Z,13.98
2023-03-27T08:16:18.585Z,13.97
2023-03-27T08:18:47.641Z,13.96
2023-03-27T08:21:16.827Z,13.97
2023-03-27T08:23:46.237Z,14.03
2023-03-27T08:26:33.760Z,14.11
2023-03-27T08:29:04.499Z,14.24
2023-03-27T08:31:34.620Z,14.43
2023-03-27T08:34:05.152Z,14.53
2023-03-27T08:36:48.067Z,14.64
2023-03-27T08:39:16.672Z,14.66
2023-03-27T08:42:03.940Z,14.73
2023-03-27T08:44:37.448Z,14.84
2023-03-27T08:47:31.828Z,14.98
2023-03-27T08:50:18.060Z,15.21
2023-03-27T08:52:50.144Z,15.40
2023-03-27T08:55:42.756Z,15.52
2023-03-27T08:58:21.237Z,15.72
2023-03-27T09:01:18.809Z,16.07
2023-03-27T09:03:53.873Z,16.82
2023-03-27T09:06:22.688Z,17.46
2023-03-27T09:09:04.288Z,17.99
2023-03-27T09:11:55.042Z,18.26
2023-03-27T09:14:51.513Z,18.48
2023-03-27T09:17:52.127Z,18.73
2023-03-27T09:20:32.510Z,18.82
2023-03-27T09:23:09.176Z,18.72
2023-03-27T09:26:04.348Z,18.64
2023-03-27T09:29:24.893Z,18.46
2023-03-27T09:32:03.309Z,18.25
2023-03-27T09:34:33.572Z,18.15
2023-03-27T09:37:02.825Z,18.07
2023-03-27T09:39:34.320Z,18.08
2023-03-27T09:42:20.559Z,18.12
2023-03-27T09:44:56.415Z,18.16
2023-03-27T09:47:38.626Z,18.23
2023-03-27T09:50:20.532Z,18.23
2023-03-27T09:53:17.073Z,18.24
2023-03-27T09:56:01.108Z,18.21
2023-03-27T09:58:40.902Z,18.18
2023-03-27T10:01:14.713Z,18.21
2023-03-27T10:03:53.675Z,18.34
2023-03-27T10:06:48.433Z,18.42
2023-03-27T10:09:40.680Z,18.55
2023-03-27T10:12:19.113Z,18.73
2023-03-27T10:14:52.831Z,19.00
2023-03-27T10:17:32.202Z,19.26
2023-03-27T10:20:16.189Z,19.59
2023-03-27T10:23:01.502Z,20.05
2023-03-27T10:25:36.238Z,20.53
2023-03-27T10:28:29.508Z,20.82
2023-03-27T10:31:30.064Z,21.00
2023-03-27T10:34:06.303Z,21.03
2023-03-27T10:37:40.942Z,21.19
2023-03-27T10:40:33.504Z,21.57
2023-03-27T10:43:14.041Z,21.72
2023-03-27T10:45:51.757Z,21.78
2023-03-27T10:48:51.150Z,21.78
2023-03-27T10:51:47.360Z,21.77
2023-03-27T10:54:47.066Z,21.66
2023-03-27T10:57:29.297Z,21.51
2023-03-27T11:00:13.840Z,21.43
2023-03-27T11:03:03.347Z,21.29
2023-03-27T11:05:39.761Z,21.28
2023-03-27T11:08:19.502Z,21.18
2023-03-27T11:10:49.614Z,21.15
2023-03-27T11:13:28.480Z,21.12
2023-03-27T11:16:20.038Z,21.23
2023-03-27T11:19:38.160Z,21.29
2023-03-27T11:22:33.765Z,21.47
2023-03-27T11:25:14.240Z,21.66
2023-03-27T11:28:03.817Z,22.05
2023-03-27T11:30:44.523Z,22.32
2023-03-27T11:33:38.347Z,22.40
2023-03-27T11:36:37.860Z,22.61
2023-03-27T11:39:55.084Z,22.97
2023-03-27T11:42:29.725Z,23.09
2023-03-27T11:44:58.947Z,22.98
2023-03-27T11:48:24.939Z,22.85
2023-03-27T11:51:05.509Z,22.71
2023-03-27T11:53:40.031Z,22.59
2023-03-27T11:56:29.308Z,22.61
2023-03-27T11:59:32.860Z,22.63
2023-03-27T12:02:18.990Z,22.36
2023-03-27T12:05:10.716Z,22.18
2023-03-27T12:07:59.290Z,21.97
2023-03-27T12:10:32.167Z,21.87
2023-03-27T12:13:34.832Z,22.01
2023-03-27T12:16:16.137Z,22.20
2023-03-27T12:19:27.959Z,22.27
2023-03-27T12:22:27.196Z,22.08
2023-03-27T12:25:23.275Z,21.97
2023-03-27T12:28:40.146Z,21.78
2023-03-27T12:31:54.158Z,21.52
2023-03-27T12:34:28.746Z,21.28
2023-03-27T12:36:59.526Z,21.06
2023-03-27T12:39:29.009Z,20.84
2023-03-27T12:42:14.114Z,20.66
2023-03-27T12:45:13.667Z,20.48
2023-03-27T12:48:05.233Z,20.30
2023-03-27T12:50:59.166Z,20.10
2023-03-27T12:53:29.754Z,19.93
2023-03-27T12:56:12.323Z,19.78
2023-03-27T12:58:41.774Z,19.63
2023-03-27T13:01:52.035Z,19.44
2023-03-27T13:04:25.065Z,19.26
2023-03-27T13:07:05.326Z,19.12
2023-03-27T13:10:08.529Z,19.03
2023-03-27T13:12:57.967Z,18.99
2023-03-27T13:15:54.990Z,18.93
2023-03-27T13:18:57.219Z,18.90
2023-03-27T13:21:38.615Z,18.89
2023-03-27T13:24:31.456Z,18.88
2023-03-27T13:27:02.803Z,18.86
2023-03-27T13:29:34.668Z,18.79
2023-03-27T13:32:24.162Z,18.74
2023-03-27T13:35:17.403Z,18.65
2023-03-27T13:38:00.822Z,18.55
2023-03-27T13:40:51.276Z,18.37
2023-03-27T13:43:35.558Z,18.22
2023-03-27T13:46:29.316Z,18.02
2023-03-27T13:49:16.681Z,17.80
2023-03-27T13:52:26.554Z,17.55
2023-03-27T13:55:18.360Z,17.32
2023-03-27T13:58:26.475Z,17.04
2023-03-27T14:01:31.847Z,16.73
2023-03-27T14:04:33.680Z,16.30
2023-03-27T14:07:20.036Z,15.75
2023-03-27T14:10:37.686Z,15.19
2023-03-27T14:13:09.265Z,14.66
2023-03-27T14:16:11.706Z,14.21
2023-03-27T14:19:01.833Z,13.77
2023-03-27T14:21:49.688Z,13.38
2023-03-27T14:24:30.743Z,13.00
2023-03-27T14:27:14.024Z,12.72
2023-03-27T14:29:42.353Z,12.51
2023-03-27T14:32:15.860Z,12.33
2023-03-27T14:35:03.069Z,12.16
2023-03-27T14:37:36.986Z,12.01
2023-03-27T14:40:23.160Z,11.90
2023-03-27T14:42:56.155Z,11.81
2023-03-27T14:45:30.171Z,11.73
2023-03-27T14:48:19.550Z,11.69
2023-03-27T14:50:51.668Z,11.65
2023-03-27T14:53:26.361Z,11.62
2023-03-27T14:56:23.250Z,11.61
2023-03-27T14:59:15.376Z,11.63
2023-03-27T15:02:00.291Z,11.68
2023-03-27T15:04:31.676Z,11.74
2023-03-27T15:07:22.445Z,11.83
2023-03-27T15:10:06.704Z,11.89
2023-03-27T15:12:56.059Z,11.94
2023-03-27T15:15:34.694Z,11.96
2023-03-27T15:18:05.553Z,11.99
2023-03-27T15:20:37.489Z,12.03
2023-03-27T15:23:23.092Z,12.06
2023-03-27T15:26:03.019Z,12.09
2023-03-27T15:28:42.870Z,12.11
2023-03-27T15:31:11.946Z,12.13
2023-03-27T15:34:06.256Z,12.15
2023-03-27T15:36:37.808Z,12.15
2023-03-27T15:39:07.463Z,12.13
2023-03-27T15:41:42.665Z,12.09
2023-03-27T15:44:16.052Z,12.06
2023-03-27T15:46:54.223Z,12.03
2023-03-27T15:49:33.186Z,11.98
2023-03-27T15:52:28.013Z,11.93
2023-03-27T15:54:57.097Z,11.84
2023-03-27T15:57:29.469Z,11.77
2023-03-27T16:00:08.756Z,11.72
2023-03-27T16:02:41.629Z,11.66
2023-03-27T16:05:16.822Z,11.64
2023-03-27T16:07:47.559Z,11.61
2023-03-27T16:10:31.395Z,11.59
2023-03-27T16:13:07.649Z,11.56
2023-03-27T16:15:37.805Z,11.52
2023-03-27T16:18:19.686Z,11.47
2023-03-27T16:20:48.156Z,11.41
2023-03-27T16:23:16.455Z,11.38
2023-03-27T16:25:44.938Z,11.32
2023-03-27T16:28:14.613Z,11.28
2023-03-27T16:30:42.962Z,11.23
2023-03-27T16:33:17.197Z,11.18
2023-03-27T16:35:46.063Z,11.14
2023-03-27T16:38:14.800Z,11.10
2023-03-27T16:40:44.378Z,11.08
2023-03-27T16:43:12.778Z,11.07
2023-03-27T16:45:41.598Z,11.06
2023-03-27T16:48:11.278Z,11.06
2023-03-27T16:50:39.968Z,11.06
2023-03-27T16:53:08.449Z,11.07
2023-03-27T16:55:36.938Z,11.08
2023-03-27T16:58:05.488Z,11.10
2023-03-27T17:00:33.769Z,11.12
2023-03-27T17:03:02.117Z,11.13
2023-03-27T17:05:34.540Z,11.14
2023-03-27T17:08:04.543Z,11.14
2023-03-27T17:10:34.675Z,11.13
2023-03-27T17:13:02.975Z,11.10
2023-03-27T17:15:36.286Z,11.05
2023-03-27T17:18:06.222Z,10.99
2023-03-27T17:20:35.576Z,10.92
2023-03-27T17:23:03.945Z,10.87
2023-03-27T17:25:32.422Z,10.83
2023-03-27T17:28:00.701Z,10.80
2023-03-27T17:30:39.540Z,10.77
2023-03-27T17:33:12.527Z,10.75
2023-03-27T17:35:41.976Z,10.75
2023-03-27T17:38:11.732Z,10.75
2023-03-27T17:40:41.476Z,10.76
2023-03-27T17:43:10.020Z,10.76
2023-03-27T17:45:42.292Z,10.78
2023-03-27T17:48:11.574Z,10.80
2023-03-27T17:50:40.077Z,10.80
2023-03-27T17:53:08.295Z,10.80
2023-03-27T17:55:38.162Z,10.80
2023-03-27T17:58:09.977Z,10.81
2023-03-27T18:00:41.514Z,10.80
2023-03-27T18:03:10.124Z,10.80
2023-03-27T18:05:40.199Z,10.80
2023-03-27T18:08:11.765Z,10.80
2023-03-27T18:10:45.254Z,10.79
2023-03-27T18:13:13.414Z,10.78
2023-03-27T18:15:41.807Z,10.77
2023-03-27T18:18:10.672Z,10.76
2023-03-27T18:20:39.065Z,10.73
2023-03-27T18:23:07.435Z,10.70
2023-03-27T18:25:36.022Z,10.67
2023-03-27T18:28:04.806Z,10.63
2023-03-27T18:30:32.985Z,10.61
2023-03-27T18:33:01.740Z,10.57
2023-03-27T18:35:31.403Z,10.54
2023-03-27T18:37:59.757Z,10.53
2023-03-27T18:40:28.244Z,10.52
2023-03-27T18:42:56.479Z,10.52
2023-03-27T18:45:25.710Z,10.51
2023-03-27T18:47:54.210Z,10.52
2023-03-27T18:50:23.809Z,10.52
2023-03-27T18:52:52.090Z,10.51
2023-03-27T18:55:21.075Z,10.51
2023-03-27T18:57:49.244Z,10.52
2023-03-27T19:00:21.131Z,10.51
2023-03-27T19:02:49.461Z,10.51
2023-03-27T19:05:18.379Z,10.52
2023-03-27T19:07:47.061Z,10.52
2023-03-27T19:10:15.857Z,10.52
2023-03-27T19:12:47.309Z,10.52
2023-03-27T19:15:20.130Z,10.50
2023-03-27T19:17:58.014Z,10.49
2023-03-27T19:20:49.413Z,10.46
2023-03-27T19:23:37.755Z,10.45
2023-03-27T19:26:11.799Z,10.44
2023-03-27T19:28:44.305Z,10.42
2023-03-27T19:31:12.858Z,10.40
2023-03-27T19:33:43.158Z,10.37
2023-03-27T19:36:11.743Z,10.34
2023-03-27T19:38:40.224Z,10.31
2023-03-27T19:41:10.102Z,10.28
2023-03-27T19:43:38.305Z,10.23
2023-03-27T19:46:15.765Z,10.20
2023-03-27T19:48:47.660Z,10.17
2023-03-27T19:51:26.796Z,10.15
2023-03-27T19:53:55.685Z,10.14
2023-03-27T19:56:26.827Z,10.13
2023-03-27T19:58:56.338Z,10.12
2023-03-27T20:01:28.561Z,10.12
2023-03-27T20:03:58.141Z,10.11
2023-03-27T20:06:28.975Z,10.10
2023-03-27T20:09:01.216Z,10.08
2023-03-27T20:11:29.405Z,10.07
2023-03-27T20:13:57.558Z,10.06
2023-03-27T20:16:27.713Z,10.04
2023-03-27T20:19:03.752Z,10.03
2023-03-27T20:21:36.297Z,10.01
2023-03-27T20:24:10.099Z,10.00
2023-03-27T20:26:42.249Z,9.96
2023-03-27T20:29:18.928Z,9.93
2023-03-27T20:31:48.236Z,9.89
2023-03-27T20:34:20.037Z,9.85
2023-03-27T20:36:48.519Z,9.80
2023-03-27T20:39:31.129Z,9.76
2023-03-27T20:41:59.496Z,9.72
2023-03-27T20:44:35.520Z,9.68
2023-03-27T20:47:11.166Z,9.65
2023-03-27T20:49:42.862Z,9.63
2023-03-27T20:52:15.749Z,9.61
2023-03-27T20:54:44.662Z,9.59
2023-03-27T20:57:13.578Z,9.58
2023-03-27T20:59:41.858Z,9.56
2023-03-27T21:02:17.123Z,9.54
2023-03-27T21:04:46.787Z,9.51
2023-03-27T21:07:16.126Z,9.47
2023-03-27T21:09:47.411Z,9.44
2023-03-27T21:12:16.204Z,9.40
2023-03-27T21:14:44.572Z,9.37
2023-03-27T21:17:13.466Z,9.34
2023-03-27T21:19:41.949Z,9.31
2023-03-27T21:22:10.434Z,9.29
2023-03-27T21:24:40.876Z,9.27
2023-03-27T21:27:09.447Z,9.24
2023-03-27T21:29:38.031Z,9.22
2023-03-27T21:32:07.065Z,9.19
2023-03-27T21:34:37.961Z,9.14
2023-03-27T21:37:07.198Z,9.11
2023-03-27T21:39:35.640Z,9.06
2023-03-27T21:42:04.239Z,9.01
2023-03-27T21:44:32.405Z,8.96
2023-03-27T21:47:00.880Z,8.93
2023-03-27T21:49:29.259Z,8.87
2023-03-27T21:51:57.330Z,8.83
2023-03-27T21:54:25.712Z,8.79
2023-03-27T21:56:53.966Z,8.74
2023-03-27T21:59:22.297Z,8.71
2023-03-27T22:01:51.216Z,8.66
2023-03-27T22:04:21.758Z,8.60
2023-03-27T22:06:50.166Z,8.56
2023-03-27T22:09:18.647Z,8.51
2023-03-27T22:11:47.231Z,8.46
2023-03-27T22:14:15.608Z,8.42
2023-03-27T22:16:44.707Z,8.38
2023-03-27T22:19:12.983Z,8.35
2023-03-27T22:21:41.464Z,8.31
2023-03-27T22:24:09.612Z,8.27
2023-03-27T22:26:39.926Z,8.24
2023-03-27T22:29:09.494Z,8.19
2023-03-27T22:31:38.501Z,8.13
2023-03-27T22:34:06.842Z,8.09
2023-03-27T22:36:35.552Z,8.04
2023-03-27T22:39:04.318Z,8.01
2023-03-27T22:41:32.698Z,7.98
2023-03-27T22:44:01.996Z,7.94
2023-03-27T22:46:30.618Z,7.90
2023-03-27T22:48:59.476Z,7.86
2023-03-27T22:51:29.999Z,7.82
2023-03-27T22:53:58.475Z,7.78
2023-03-27T22:56:26.762Z,7.74
2023-03-27T22:58:55.235Z,7.70
2023-03-27T23:01:23.434Z,7.66
2023-03-27T23:03:51.781Z,7.61
2023-03-27T23:06:22.975Z,7.56
2023-03-27T23:08:52.334Z,7.53
2023-03-27T23:11:20.829Z,7.50
2023-03-27T23:13:49.823Z,7.46
2023-03-27T23:16:17.986Z,7.43
2023-03-27T23:18:46.793Z,7.41
2023-03-27T23:21:18.580Z,7.38
2023-03-27T23:23:47.116Z,7.34
2023-03-27T23:26:16.113Z,7.31
2023-03-27T23:28:44.593Z,7.27
2023-03-27T23:31:17.167Z,7.24
2023-03-27T23:33:49.032Z,7.22
2023-03-27T23:36:23.113Z,7.19
2023-03-27T23:38:52.958Z,7.16
2023-03-27T23:41:21.441Z,7.14
2023-03-27T23:43:50.144Z,7.12
2023-03-27T23:46:18.574Z,7.09
2023-03-27T23:48:47.092Z,7.06
2023-03-27T23:51:16.799Z,7.02
2023-03-27T23:53:45.725Z,6.98
2023-03-27T23:56:13.973Z,6.95
2023-03-27T23:58:42.346Z,6.92
